createdAt,value
2023-02-11T00:02:05.434Z,67.17
2023-02-11T00:05:09.866Z,67.21
2023-02-11T00:08:18.475Z,67.24
2023-02-11T00:14:43.736Z,67.11
2023-02-11T00:17:53.886Z,66.62
2023-02-11T00:21:05.304Z,66.37
2023-02-11T00:27:31.307Z,65.05
2023-02-11T00:30:49.117Z,64.87
2023-02-11T00:34:04.840Z,63.90
2023-02-11T00:37:14.334Z,64.16
2023-02-11T00:40:30.272Z,65.53
2023-02-11T00:43:36.248Z,65.43
2023-02-11T00:50:15.286Z,65.11
2023-02-11T00:56:45.639Z,65.42
2023-02-11T00:59:55.416Z,65.34
2023-02-11T01:03:13.023Z,64.74
2023-02-11T01:09:44.317Z,63.65
2023-02-11T01:13:18.900Z,63.80
2023-02-11T01:16:25.722Z,63.57
2023-02-11T01:19:32.843Z,63.76
2023-02-11T01:26:15.116Z,63.94
2023-02-11T01:29:28.745Z,64.18
2023-02-11T01:32:39.623Z,63.70
2023-02-11T01:42:33.052Z,63.78
2023-02-11T02:11:28.886Z,62.53
2023-02-11T04:37:01.678Z,56.00
2023-02-11T04:43:45.397Z,54.47
2023-02-11T04:50:08.467Z,54.13
2023-02-11T04:53:12.339Z,54.13
2023-02-11T04:56:20.340Z,54.21
2023-02-11T04:59:25.449Z,53.35
2023-02-11T05:02:29.375Z,53.55
2023-02-11T05:08:53.744Z,52.91
2023-02-11T05:15:23.426Z,52.75
2023-02-11T05:25:29.919Z,51.95
2023-02-11T05:55:31.916Z,50.58
2023-02-11T06:11:59.771Z,50.08
2023-02-11T06:15:13.248Z,49.35
2023-02-11T06:43:06.876Z,47.00
2023-02-11T07:28:54.522Z,44.12
2023-02-11T08:20:57.961Z,44.08
2023-02-11T08:27:24.332Z,44.46
2023-02-11T08:40:48.126Z,45.37
2023-02-11T08:43:54.250Z,45.73
2023-02-11T08:50:41.891Z,46.59
2023-02-11T09:00:34.602Z,48.13
2023-02-11T09:03:41.810Z,48.81
2023-02-11T09:10:53.696Z,49.51
2023-02-11T09:34:05.713Z,50.01
2023-02-11T09:37:16.195Z,49.89
2023-02-11T09:40:30.546Z,49.83
2023-02-11T09:47:21.974Z,50.28
2023-02-11T09:54:05.693Z,50.24
2023-02-11T09:57:23.135Z,50.49
2023-02-11T10:15:37.094Z,51.21
2023-02-11T10:19:02.755Z,50.78
2023-02-11T10:33:37.604Z,51.40
2023-02-11T10:44:02.467Z,51.66
2023-02-11T10:50:39.606Z,51.52
2023-02-11T10:53:56.806Z,51.69
2023-02-11T11:00:48.111Z,52.01
2023-02-11T11:08:12.375Z,52.71
2023-02-11T11:11:22.258Z,52.93
2023-02-11T11:14:39.432Z,52.96
2023-02-11T11:39:04.881Z,52.53
2023-02-11T11:46:31.041Z,52.63
2023-02-11T11:54:19.017Z,52.55
2023-02-11T11:57:54.819Z,52.39
2023-02-11T14:47:35.166Z,55.14
2023-02-11T14:54:15.776Z,56.21
2023-02-11T14:57:23.909Z,56.69
2023-02-11T15:03:51.282Z,56.82
2023-02-11T15:07:20.138Z,57.36
2023-02-11T15:11:00.119Z,57.26
2023-02-11T15:28:39.948Z,56.24
2023-02-11T15:31:49.372Z,55.31
2023-02-11T15:41:52.814Z,53.58
2023-02-11T15:45:18.130Z,53.32
2023-02-11T15:48:39.782Z,53.30
2023-02-11T16:05:16.572Z,52.73
2023-02-11T16:08:37.994Z,52.62
2023-02-11T16:12:18.407Z,52.78
2023-02-11T16:15:55.762Z,52.71
2023-02-11T16:19:05.292Z,52.64
2023-02-11T16:30:24.148Z,52.51
2023-02-11T16:33:35.202Z,52.56
2023-02-11T16:36:43.808Z,52.66
2023-02-11T16:39:49.508Z,52.59
2023-02-11T16:46:19.524Z,52.76
2023-02-11T16:49:37.377Z,52.70
2023-02-11T16:52:47.324Z,52.76
2023-02-11T16:55:54.622Z,52.50
2023-02-11T16:59:00.329Z,52.62
2023-02-11T17:02:05.748Z,52.65
2023-02-11T17:05:19.603Z,52.61
2023-02-11T17:08:25.096Z,52.71
2023-02-11T17:11:34.618Z,52.79
2023-02-11T17:14:39.550Z,52.58
2023-02-11T17:17:45.061Z,52.52
2023-02-11T17:20:50.048Z,53.07
2023-02-11T17:23:56.290Z,53.53
2023-02-11T17:27:04.287Z,53.78
2023-02-11T17:30:12.760Z,53.79
2023-02-11T17:33:17.282Z,54.33
2023-02-11T17:36:27.652Z,55.35
2023-02-11T17:39:31.531Z,55.72
2023-02-11T17:42:36.720Z,55.96
2023-02-11T17:45:43.535Z,56.42
2023-02-11T17:48:48.306Z,57.06
2023-02-11T17:51:53.879Z,57.12
2023-02-11T17:55:08.085Z,57.23
2023-02-11T17:58:11.307Z,57.90
2023-02-11T18:01:21.180Z,58.50
2023-02-11T18:04:29.146Z,58.52
2023-02-11T18:07:34.804Z,58.88
2023-02-11T18:10:42.688Z,58.84
2023-02-11T18:13:52.352Z,59.25
2023-02-11T18:16:59.775Z,58.85
2023-02-11T18:20:04.912Z,59.49
2023-02-11T18:23:12.216Z,59.50
2023-02-11T18:26:16.871Z,59.75
2023-02-11T18:29:22.401Z,59.35
2023-02-11T18:32:32.787Z,59.54
2023-02-11T18:35:51.890Z,60.33
2023-02-11T18:38:58.104Z,59.77
2023-02-11T18:42:02.050Z,60.00
2023-02-11T18:45:12.558Z,59.63
2023-02-11T18:48:17.674Z,59.25
2023-02-11T18:51:23.403Z,58.34
2023-02-11T18:54:30.721Z,57.46
2023-02-11T18:57:36.249Z,56.57
2023-02-11T19:00:42.800Z,55.95
2023-02-11T19:03:50.829Z,55.49
2023-02-11T19:06:55.072Z,55.05
2023-02-11T19:10:00.912Z,55.02
2023-02-11T19:13:05.203Z,54.92
2023-02-11T19:16:15.500Z,54.71
2023-02-11T19:19:24.201Z,54.58
2023-02-11T19:22:28.565Z,54.56
2023-02-11T19:25:31.744Z,54.50
2023-02-11T19:28:38.866Z,54.57
2023-02-11T19:31:44.350Z,54.54
2023-02-11T19:34:49.734Z,54.57
2023-02-11T19:37:55.204Z,54.63
2023-02-11T19:41:01.416Z,54.69
2023-02-11T19:44:07.511Z,54.69
2023-02-11T19:47:12.389Z,54.88
2023-02-11T19:50:17.910Z,54.91
2023-02-11T19:53:22.096Z,54.81
2023-02-11T19:56:28.005Z,54.83
2023-02-11T19:59:32.234Z,54.69
2023-02-11T20:02:40.780Z,54.72
2023-02-11T20:05:48.927Z,54.63
2023-02-11T20:09:15.746Z,54.60
2023-02-11T20:12:19.478Z,54.59
2023-02-11T20:15:26.620Z,54.61
2023-02-11T20:18:30.018Z,54.56
2023-02-11T20:21:35.240Z,54.46
2023-02-11T20:24:41.548Z,54.44
2023-02-11T20:27:47.669Z,54.43
2023-02-11T20:31:02.888Z,54.51
2023-02-11T20:34:06.663Z,54.68
2023-02-11T20:37:11.902Z,54.72
2023-02-11T20:40:17.345Z,54.77
2023-02-11T20:43:22.479Z,55.00
2023-02-11T20:46:28.367Z,54.91
2023-02-11T20:49:33.231Z,54.85
2023-02-11T20:52:38.062Z,55.06
2023-02-11T20:55:44.277Z,55.06
2023-02-11T20:58:49.221Z,55.91
2023-02-11T21:01:56.457Z,56.62
2023-02-11T21:05:00.771Z,56.75
2023-02-11T21:08:07.465Z,57.67
2023-02-11T21:11:12.402Z,58.21
2023-02-11T21:14:21.836Z,58.33
2023-02-11T21:17:30.315Z,58.67
2023-02-11T21:20:36.133Z,58.85
2023-02-11T21:23:51.515Z,59.00
2023-02-11T21:26:56.674Z,59.05
2023-02-11T21:30:05.229Z,59.39
2023-02-11T21:33:21.143Z,59.82
2023-02-11T21:36:25.059Z,59.87
2023-02-11T21:39:29.808Z,59.68
2023-02-11T21:42:34.813Z,59.63
2023-02-11T21:45:48.087Z,60.58
2023-02-11T21:48:53.462Z,61.04
2023-02-11T21:51:58.122Z,61.13
2023-02-11T21:55:02.222Z,61.17
2023-02-11T21:58:08.680Z,60.83
2023-02-11T22:01:34.930Z,60.64
2023-02-11T22:04:39.293Z,60.75
2023-02-11T22:07:42.499Z,60.79
2023-02-11T22:10:47.383Z,60.01
2023-02-11T22:14:05.700Z,59.95
2023-02-11T22:17:10.976Z,59.82
2023-02-11T22:20:15.711Z,60.18
2023-02-11T22:26:41.799Z,59.88
2023-02-11T22:29:46.243Z,60.15
2023-02-11T22:32:50.788Z,61.10
2023-02-11T22:36:04.606Z,60.80
2023-02-11T22:39:12.082Z,60.97
2023-02-11T22:42:23.934Z,61.11
2023-02-11T22:45:27.698Z,61.21
2023-02-11T22:48:32.869Z,61.61
2023-02-11T22:51:38.056Z,61.33
2023-02-11T22:54:42.811Z,61.51
2023-02-11T22:57:48.303Z,61.25
2023-02-11T23:00:55.512Z,61.60
2023-02-11T23:04:03.093Z,61.95
2023-02-11T23:07:06.966Z,61.98
2023-02-11T23:10:11.559Z,61.73
2023-02-11T23:13:17.598Z,61.68
2023-02-11T23:16:31.728Z,61.04
2023-02-11T23:19:36.959Z,61.58
2023-02-11T23:22:41.557Z,61.74
2023-02-11T23:25:54.303Z,61.97
2023-02-11T23:29:01.883Z,61.75
2023-02-11T23:32:06.098Z,61.22
2023-02-11T23:35:11.513Z,61.40
2023-02-11T23:38:15.736Z,60.40
2023-02-11T23:41:24.772Z,59.90
2023-02-11T23:44:33.690Z,60.91
2023-02-11T23:47:37.206Z,61.78
2023-02-11T23:50:42.049Z,61.68
2023-02-11T23:53:48.757Z,60.36
2023-02-11T23:56:53.913Z,60.37
